Terminal Aerodrome Forecast
Issued by NWS

Home | Current Version | Previous Version | Text Only | Print | Product List | Glossary On
Versions: 1 2 3 4 5 6 7 8 9 10 11 12 13 14 15 16 17
650
FTUS42 KTBW 262340 AAA
TAFPGD
TAF AMD
KPGD 262340Z 2700/2724 07009KT P6SM FEW250
     FM270900 07006KT P6SM SCT015
     FM271400 12009KT P6SM SCT200
     FM272000 17011G16KT P6SM FEW120
     FM272300 21007KT P6SM FEW045 SCT070=

USA.gov is the U.S. government's official web portal to all federal, state and local government web resources and services.